sensor_id;sensor_type;location;lat;lon;timestamp;P1;durP1;ratioP1;P2;durP2;ratioP2
57331;SDS011;43164;50.908;18.092;2022-12-07T00:01:43;22.40;;;9.40;;
57331;SDS011;43164;50.908;18.092;2022-12-07T00:04:12;25.40;;;11.10;;
57331;SDS011;43164;50.908;18.092;2022-12-07T00:06:42;22.90;;;10.10;;
57331;SDS011;43164;50.908;18.092;2022-12-07T00:09:12;21.10;;;9.10;;
57331;SDS011;43164;50.908;18.092;2022-12-07T00:11:41;20.50;;;9.10;;
57331;SDS011;43164;50.908;18.092;2022-12-07T00:14:11;19.30;;;8.30;;
57331;SDS011;43164;50.908;18.092;2022-12-07T00:16:39;19.30;;;9.00;;
57331;SDS011;43164;50.908;18.092;2022-12-07T00:19:08;17.10;;;7.70;;
57331;SDS011;43164;50.908;18.092;2022-12-07T00:21:37;18.90;;;8.10;;
57331;SDS011;43164;50.908;18.092;2022-12-07T00:24:05;19.20;;;8.80;;
57331;SDS011;43164;50.908;18.092;2022-12-07T00:26:34;18.20;;;8.40;;
57331;SDS011;43164;50.908;18.092;2022-12-07T00:29:07;19.90;;;9.20;;
57331;SDS011;43164;50.908;18.092;2022-12-07T00:31:45;21.30;;;8.20;;
57331;SDS011;43164;50.908;18.092;2022-12-07T00:34:15;22.10;;;9.20;;
57331;SDS011;43164;50.908;18.092;2022-12-07T00:36:46;19.90;;;8.50;;
57331;SDS011;43164;50.908;18.092;2022-12-07T00:39:14;17.80;;;7.90;;
57331;SDS011;43164;50.908;18.092;2022-12-07T00:41:42;20.00;;;9.00;;
57331;SDS011;43164;50.908;18.092;2022-12-07T00:44:10;19.30;;;8.10;;
57331;SDS011;43164;50.908;18.092;2022-12-07T00:46:38;19.20;;;9.00;;
57331;SDS011;43164;50.908;18.092;2022-12-07T00:49:06;22.20;;;9.30;;
57331;SDS011;43164;50.908;18.092;2022-12-07T00:51:34;21.40;;;10.50;;
57331;SDS011;43164;50.908;18.092;2022-12-07T00:54:03;20.40;;;9.10;;
57331;SDS011;43164;50.908;18.092;2022-12-07T00:56:32;21.80;;;9.80;;
57331;SDS011;43164;50.908;18.092;2022-12-07T00:59:01;21.10;;;9.60;;
57331;SDS011;43164;50.908;18.092;2022-12-07T01:01:31;23.90;;;9.80;;
57331;SDS011;43164;50.908;18.092;2022-12-07T01:04:00;21.00;;;9.70;;
57331;SDS011;43164;50.908;18.092;2022-12-07T01:06:29;19.50;;;9.30;;
57331;SDS011;43164;50.908;18.092;2022-12-07T01:08:58;21.00;;;10.00;;
57331;SDS011;43164;50.908;18.092;2022-12-07T01:11:28;20.90;;;8.70;;
57331;SDS011;43164;50.908;18.092;2022-12-07T01:13:57;19.60;;;9.60;;
57331;SDS011;43164;50.908;18.092;2022-12-07T01:16:26;20.30;;;9.70;;
57331;SDS011;43164;50.908;18.092;2022-12-07T01:18:56;20.70;;;9.20;;
57331;SDS011;43164;50.908;18.092;2022-12-07T01:21:25;19.10;;;8.90;;
57331;SDS011;43164;50.908;18.092;2022-12-07T01:24:05;19.80;;;8.80;;
57331;SDS011;43164;50.908;18.092;2022-12-07T01:26:35;19.80;;;9.30;;
57331;SDS011;43164;50.908;18.092;2022-12-07T01:29:03;20.50;;;9.20;;
57331;SDS011;43164;50.908;18.092;2022-12-07T01:31:31;17.60;;;8.40;;
57331;SDS011;43164;50.908;18.092;2022-12-07T01:34:00;17.30;;;8.30;;
57331;SDS011;43164;50.908;18.092;2022-12-07T01:36:29;18.80;;;8.40;;
57331;SDS011;43164;50.908;18.092;2022-12-07T01:38:59;17.10;;;7.60;;
57331;SDS011;43164;50.908;18.092;2022-12-07T01:41:30;17.10;;;7.60;;
57331;SDS011;43164;50.908;18.092;2022-12-07T01:46:57;14.50;;;7.00;;
57331;SDS011;43164;50.908;18.092;2022-12-07T01:49:38;16.40;;;6.20;;
57331;SDS011;43164;50.908;18.092;2022-12-07T01:54:51;14.90;;;6.60;;
57331;SDS011;43164;50.908;18.092;2022-12-07T01:57:21;14.60;;;6.20;;
57331;SDS011;43164;50.908;18.092;2022-12-07T01:59:51;13.70;;;6.20;;
57331;SDS011;43164;50.908;18.092;2022-12-07T02:02:21;11.90;;;5.40;;
57331;SDS011;43164;50.908;18.092;2022-12-07T02:04:53;13.40;;;6.10;;
57331;SDS011;43164;50.908;18.092;2022-12-07T02:07:23;14.70;;;6.10;;
57331;SDS011;43164;50.908;18.092;2022-12-07T02:09:51;14.90;;;5.20;;
57331;SDS011;43164;50.908;18.092;2022-12-07T02:12:19;13.60;;;6.30;;
57331;SDS011;43164;50.908;18.092;2022-12-07T02:14:48;14.00;;;6.80;;
57331;SDS011;43164;50.908;18.092;2022-12-07T02:17:30;13.90;;;5.20;;
57331;SDS011;43164;50.908;18.092;2022-12-07T02:20:17;14.50;;;5.90;;
57331;SDS011;43164;50.908;18.092;2022-12-07T02:26:13;13.30;;;5.90;;
57331;SDS011;43164;50.908;18.092;2022-12-07T02:31:41;13.90;;;5.60;;
57331;SDS011;43164;50.908;18.092;2022-12-07T02:37:09;15.00;;;6.50;;
57331;SDS011;43164;50.908;18.092;2022-12-07T02:39:53;12.70;;;5.60;;
57331;SDS011;43164;50.908;18.092;2022-12-07T02:42:28;12.40;;;5.50;;
57331;SDS011;43164;50.908;18.092;2022-12-07T02:45:06;11.20;;;5.30;;
57331;SDS011;43164;50.908;18.092;2022-12-07T02:47:35;14.00;;;5.70;;
57331;SDS011;43164;50.908;18.092;2022-12-07T02:50:05;12.70;;;5.20;;
57331;SDS011;43164;50.908;18.092;2022-12-07T02:52:35;14.00;;;5.80;;
57331;SDS011;43164;50.908;18.092;2022-12-07T02:55:03;12.50;;;5.10;;
57331;SDS011;43164;50.908;18.092;2022-12-07T02:57:40;12.60;;;5.40;;
57331;SDS011;43164;50.908;18.092;2022-12-07T03:00:29;15.00;;;6.50;;
57331;SDS011;43164;50.908;18.092;2022-12-07T03:03:09;13.90;;;5.60;;
57331;SDS011;43164;50.908;18.092;2022-12-07T03:05:47;12.40;;;5.40;;
57331;SDS011;43164;50.908;18.092;2022-12-07T03:11:58;13.00;;;5.70;;
57331;SDS011;43164;50.908;18.092;2022-12-07T03:14:35;14.20;;;6.60;;
57331;SDS011;43164;50.908;18.092;2022-12-07T03:17:16;12.90;;;6.10;;
57331;SDS011;43164;50.908;18.092;2022-12-07T03:19:52;14.00;;;6.30;;
57331;SDS011;43164;50.908;18.092;2022-12-07T03:22:24;12.60;;;5.80;;
57331;SDS011;43164;50.908;18.092;2022-12-07T03:24:59;13.70;;;5.40;;
57331;SDS011;43164;50.908;18.092;2022-12-07T03:27:36;13.20;;;5.90;;
57331;SDS011;43164;50.908;18.092;2022-12-07T03:30:13;12.90;;;5.80;;
57331;SDS011;43164;50.908;18.092;2022-12-07T03:32:48;13.10;;;5.30;;
57331;SDS011;43164;50.908;18.092;2022-12-07T03:35:25;13.20;;;5.40;;
57331;SDS011;43164;50.908;18.092;2022-12-07T03:40:54;12.90;;;4.70;;
57331;SDS011;43164;50.908;18.092;2022-12-07T03:43:24;10.60;;;4.80;;
57331;SDS011;43164;50.908;18.092;2022-12-07T03:45:59;13.30;;;5.40;;
57331;SDS011;43164;50.908;18.092;2022-12-07T03:48:55;13.40;;;4.60;;
57331;SDS011;43164;50.908;18.092;2022-12-07T03:54:13;10.20;;;3.90;;
57331;SDS011;43164;50.908;18.092;2022-12-07T03:56:48;10.50;;;4.30;;
57331;SDS011;43164;50.908;18.092;2022-12-07T03:59:17;8.90;;;3.90;;
57331;SDS011;43164;50.908;18.092;2022-12-07T04:01:51;10.30;;;4.10;;
57331;SDS011;43164;50.908;18.092;2022-12-07T04:04:23;8.10;;;3.40;;
57331;SDS011;43164;50.908;18.092;2022-12-07T04:06:52;8.30;;;3.50;;
57331;SDS011;43164;50.908;18.092;2022-12-07T04:09:20;9.00;;;3.30;;
57331;SDS011;43164;50.908;18.092;2022-12-07T04:11:49;14.60;;;3.20;;
57331;SDS011;43164;50.908;18.092;2022-12-07T04:14:17;8.80;;;3.00;;
57331;SDS011;43164;50.908;18.092;2022-12-07T04:16:52;8.80;;;2.60;;
57331;SDS011;43164;50.908;18.092;2022-12-07T04:19:24;8.40;;;2.90;;
57331;SDS011;43164;50.908;18.092;2022-12-07T04:21:54;6.40;;;2.20;;
57331;SDS011;43164;50.908;18.092;2022-12-07T04:24:22;6.60;;;2.30;;
57331;SDS011;43164;50.908;18.092;2022-12-07T04:26:51;6.70;;;2.20;;
57331;SDS011;43164;50.908;18.092;2022-12-07T04:29:19;6.50;;;1.90;;
57331;SDS011;43164;50.908;18.092;2022-12-07T04:31:47;5.50;;;1.70;;
57331;SDS011;43164;50.908;18.092;2022-12-07T04:34:16;5.60;;;1.80;;
57331;SDS011;43164;50.908;18.092;2022-12-07T04:36:45;7.50;;;2.20;;
57331;SDS011;43164;50.908;18.092;2022-12-07T04:39:25;4.90;;;1.50;;
57331;SDS011;43164;50.908;18.092;2022-12-07T04:41:57;4.90;;;1.70;;
57331;SDS011;43164;50.908;18.092;2022-12-07T04:44:26;5.50;;;1.90;;
57331;SDS011;43164;50.908;18.092;2022-12-07T04:46:55;4.50;;;1.60;;
57331;SDS011;43164;50.908;18.092;2022-12-07T04:49:24;4.20;;;1.30;;
57331;SDS011;43164;50.908;18.092;2022-12-07T04:51:52;4.10;;;1.10;;
57331;SDS011;43164;50.908;18.092;2022-12-07T04:54:21;3.10;;;1.10;;
57331;SDS011;43164;50.908;18.092;2022-12-07T04:56:49;4.20;;;1.50;;
57331;SDS011;43164;50.908;18.092;2022-12-07T04:59:17;3.30;;;1.30;;
57331;SDS011;43164;50.908;18.092;2022-12-07T05:01:46;4.00;;;1.40;;
57331;SDS011;43164;50.908;18.092;2022-12-07T05:04:15;4.40;;;1.40;;
57331;SDS011;43164;50.908;18.092;2022-12-07T05:06:45;4.80;;;1.40;;
57331;SDS011;43164;50.908;18.092;2022-12-07T05:09:12;3.10;;;1.10;;
57331;SDS011;43164;50.908;18.092;2022-12-07T05:11:41;3.90;;;1.20;;
57331;SDS011;43164;50.908;18.092;2022-12-07T05:14:13;3.30;;;1.00;;
57331;SDS011;43164;50.908;18.092;2022-12-07T05:16:46;3.60;;;1.00;;
57331;SDS011;43164;50.908;18.092;2022-12-07T05:19:16;2.80;;;0.90;;
57331;SDS011;43164;50.908;18.092;2022-12-07T05:21:45;4.20;;;1.10;;
57331;SDS011;43164;50.908;18.092;2022-12-07T05:24:14;2.90;;;0.90;;
57331;SDS011;43164;50.908;18.092;2022-12-07T05:26:44;3.30;;;0.70;;
57331;SDS011;43164;50.908;18.092;2022-12-07T05:29:13;2.50;;;0.90;;
57331;SDS011;43164;50.908;18.092;2022-12-07T05:31:42;3.60;;;0.90;;
57331;SDS011;43164;50.908;18.092;2022-12-07T05:34:11;3.60;;;1.00;;
57331;SDS011;43164;50.908;18.092;2022-12-07T05:36:41;3.20;;;1.30;;
57331;SDS011;43164;50.908;18.092;2022-12-07T05:39:21;2.60;;;0.80;;
57331;SDS011;43164;50.908;18.092;2022-12-07T05:44:43;2.50;;;0.90;;
57331;SDS011;43164;50.908;18.092;2022-12-07T05:47:13;3.00;;;0.90;;
57331;SDS011;43164;50.908;18.092;2022-12-07T05:49:42;3.90;;;1.00;;
57331;SDS011;43164;50.908;18.092;2022-12-07T05:52:10;2.10;;;0.80;;
57331;SDS011;43164;50.908;18.092;2022-12-07T05:54:38;3.00;;;1.10;;
57331;SDS011;43164;50.908;18.092;2022-12-07T05:57:07;3.80;;;1.20;;
57331;SDS011;43164;50.908;18.092;2022-12-07T05:59:35;4.80;;;1.40;;
57331;SDS011;43164;50.908;18.092;2022-12-07T06:02:09;3.50;;;1.30;;
57331;SDS011;43164;50.908;18.092;2022-12-07T06:04:40;3.70;;;1.10;;
57331;SDS011;43164;50.908;18.092;2022-12-07T06:07:12;3.10;;;1.30;;
57331;SDS011;43164;50.908;18.092;2022-12-07T06:09:42;3.40;;;1.40;;
57331;SDS011;43164;50.908;18.092;2022-12-07T06:12:21;3.70;;;1.00;;
57331;SDS011;43164;50.908;18.092;2022-12-07T06:15:05;2.10;;;0.90;;
57331;SDS011;43164;50.908;18.092;2022-12-07T06:17:35;3.40;;;1.10;;
57331;SDS011;43164;50.908;18.092;2022-12-07T06:20:04;3.60;;;1.10;;
57331;SDS011;43164;50.908;18.092;2022-12-07T06:22:33;4.30;;;1.10;;
57331;SDS011;43164;50.908;18.092;2022-12-07T06:25:02;3.00;;;1.20;;
57331;SDS011;43164;50.908;18.092;2022-12-07T06:27:31;3.20;;;1.10;;
57331;SDS011;43164;50.908;18.092;2022-12-07T06:29:59;5.50;;;1.60;;
57331;SDS011;43164;50.908;18.092;2022-12-07T06:32:36;3.00;;;1.30;;
57331;SDS011;43164;50.908;18.092;2022-12-07T06:35:04;3.10;;;1.10;;
57331;SDS011;43164;50.908;18.092;2022-12-07T06:37:33;3.10;;;1.20;;
57331;SDS011;43164;50.908;18.092;2022-12-07T06:40:02;3.60;;;1.40;;
57331;SDS011;43164;50.908;18.092;2022-12-07T06:42:32;5.00;;;1.60;;
57331;SDS011;43164;50.908;18.092;2022-12-07T06:45:00;3.50;;;1.50;;
57331;SDS011;43164;50.908;18.092;2022-12-07T06:47:30;3.60;;;1.30;;
57331;SDS011;43164;50.908;18.092;2022-12-07T06:49:58;4.80;;;1.30;;
57331;SDS011;43164;50.908;18.092;2022-12-07T06:52:27;3.00;;;1.40;;
57331;SDS011;43164;50.908;18.092;2022-12-07T06:54:55;3.90;;;1.40;;
57331;SDS011;43164;50.908;18.092;2022-12-07T06:57:24;4.20;;;1.30;;
57331;SDS011;43164;50.908;18.092;2022-12-07T06:59:52;3.80;;;1.50;;
57331;SDS011;43164;50.908;18.092;2022-12-07T07:02:20;3.70;;;1.20;;
57331;SDS011;43164;50.908;18.092;2022-12-07T07:04:49;4.40;;;1.40;;
57331;SDS011;43164;50.908;18.092;2022-12-07T07:07:18;5.40;;;1.40;;
57331;SDS011;43164;50.908;18.092;2022-12-07T07:09:46;5.20;;;1.30;;
57331;SDS011;43164;50.908;18.092;2022-12-07T07:12:15;5.00;;;1.50;;
57331;SDS011;43164;50.908;18.092;2022-12-07T07:14:44;5.20;;;1.80;;
57331;SDS011;43164;50.908;18.092;2022-12-07T07:17:13;4.90;;;2.00;;
57331;SDS011;43164;50.908;18.092;2022-12-07T07:19:41;7.60;;;2.50;;
57331;SDS011;43164;50.908;18.092;2022-12-07T07:22:09;9.30;;;3.10;;
57331;SDS011;43164;50.908;18.092;2022-12-07T07:24:37;7.50;;;2.90;;
57331;SDS011;43164;50.908;18.092;2022-12-07T07:27:06;8.10;;;2.90;;
57331;SDS011;43164;50.908;18.092;2022-12-07T07:29:35;8.70;;;3.00;;
57331;SDS011;43164;50.908;18.092;2022-12-07T07:32:03;9.60;;;3.60;;
57331;SDS011;43164;50.908;18.092;2022-12-07T07:34:32;9.70;;;4.00;;
57331;SDS011;43164;50.908;18.092;2022-12-07T07:37:01;12.50;;;4.20;;
57331;SDS011;43164;50.908;18.092;2022-12-07T07:39:30;12.20;;;3.90;;
57331;SDS011;43164;50.908;18.092;2022-12-07T07:41:58;10.40;;;3.80;;
57331;SDS011;43164;50.908;18.092;2022-12-07T07:44:32;12.60;;;4.80;;
57331;SDS011;43164;50.908;18.092;2022-12-07T07:47:01;12.50;;;4.60;;
57331;SDS011;43164;50.908;18.092;2022-12-07T07:49:29;14.50;;;5.10;;
57331;SDS011;43164;50.908;18.092;2022-12-07T07:51:58;12.80;;;5.10;;
57331;SDS011;43164;50.908;18.092;2022-12-07T07:54:30;14.10;;;5.80;;
57331;SDS011;43164;50.908;18.092;2022-12-07T07:57:00;15.00;;;5.90;;
57331;SDS011;43164;50.908;18.092;2022-12-07T07:59:29;15.40;;;5.60;;
57331;SDS011;43164;50.908;18.092;2022-12-07T08:01:58;16.50;;;6.20;;
57331;SDS011;43164;50.908;18.092;2022-12-07T08:04:26;14.80;;;6.00;;
57331;SDS011;43164;50.908;18.092;2022-12-07T08:06:56;18.40;;;6.40;;
57331;SDS011;43164;50.908;18.092;2022-12-07T08:09:26;13.40;;;5.40;;
57331;SDS011;43164;50.908;18.092;2022-12-07T08:11:56;14.00;;;5.90;;
57331;SDS011;43164;50.908;18.092;2022-12-07T08:14:29;16.90;;;6.40;;
57331;SDS011;43164;50.908;18.092;2022-12-07T08:16:57;15.80;;;6.20;;
57331;SDS011;43164;50.908;18.092;2022-12-07T08:19:26;16.10;;;5.70;;
57331;SDS011;43164;50.908;18.092;2022-12-07T08:21:56;15.40;;;6.10;;
57331;SDS011;43164;50.908;18.092;2022-12-07T08:24:25;13.20;;;5.30;;
57331;SDS011;43164;50.908;18.092;2022-12-07T08:26:54;15.30;;;5.70;;
57331;SDS011;43164;50.908;18.092;2022-12-07T08:29:22;17.80;;;5.90;;
57331;SDS011;43164;50.908;18.092;2022-12-07T08:31:51;14.80;;;5.70;;
57331;SDS011;43164;50.908;18.092;2022-12-07T08:34:20;16.00;;;6.00;;
57331;SDS011;43164;50.908;18.092;2022-12-07T08:36:49;15.70;;;6.30;;
57331;SDS011;43164;50.908;18.092;2022-12-07T08:39:17;15.40;;;5.80;;
57331;SDS011;43164;50.908;18.092;2022-12-07T08:41:45;13.00;;;5.30;;
57331;SDS011;43164;50.908;18.092;2022-12-07T08:44:14;14.30;;;5.50;;
57331;SDS011;43164;50.908;18.092;2022-12-07T08:47:01;14.90;;;6.40;;
57331;SDS011;43164;50.908;18.092;2022-12-07T08:49:33;13.70;;;5.70;;
57331;SDS011;43164;50.908;18.092;2022-12-07T08:54:35;13.80;;;5.60;;
57331;SDS011;43164;50.908;18.092;2022-12-07T08:57:05;14.70;;;5.70;;
57331;SDS011;43164;50.908;18.092;2022-12-07T08:59:34;13.90;;;5.40;;
57331;SDS011;43164;50.908;18.092;2022-12-07T09:02:04;12.90;;;5.50;;
57331;SDS011;43164;50.908;18.092;2022-12-07T09:04:33;12.40;;;5.60;;
57331;SDS011;43164;50.908;18.092;2022-12-07T09:07:01;14.30;;;5.80;;
57331;SDS011;43164;50.908;18.092;2022-12-07T09:09:32;17.00;;;6.20;;
57331;SDS011;43164;50.908;18.092;2022-12-07T09:12:01;15.20;;;6.00;;
57331;SDS011;43164;50.908;18.092;2022-12-07T09:14:30;14.60;;;5.70;;
57331;SDS011;43164;50.908;18.092;2022-12-07T09:17:11;13.90;;;6.10;;
57331;SDS011;43164;50.908;18.092;2022-12-07T09:19:40;14.70;;;5.90;;
57331;SDS011;43164;50.908;18.092;2022-12-07T09:22:09;14.60;;;5.30;;
57331;SDS011;43164;50.908;18.092;2022-12-07T09:24:38;16.90;;;6.70;;
57331;SDS011;43164;50.908;18.092;2022-12-07T09:27:08;16.60;;;6.50;;
57331;SDS011;43164;50.908;18.092;2022-12-07T09:29:36;15.00;;;6.20;;
57331;SDS011;43164;50.908;18.092;2022-12-07T09:32:05;17.60;;;6.90;;
57331;SDS011;43164;50.908;18.092;2022-12-07T09:34:34;16.30;;;6.90;;
57331;SDS011;43164;50.908;18.092;2022-12-07T09:37:03;15.50;;;7.00;;
57331;SDS011;43164;50.908;18.092;2022-12-07T09:39:33;18.90;;;7.30;;
57331;SDS011;43164;50.908;18.092;2022-12-07T09:42:03;17.20;;;7.90;;
57331;SDS011;43164;50.908;18.092;2022-12-07T09:44:40;16.20;;;7.00;;
57331;SDS011;43164;50.908;18.092;2022-12-07T09:47:09;16.80;;;7.20;;
57331;SDS011;43164;50.908;18.092;2022-12-07T09:49:38;15.70;;;6.90;;
57331;SDS011;43164;50.908;18.092;2022-12-07T09:54:43;16.60;;;7.40;;
57331;SDS011;43164;50.908;18.092;2022-12-07T09:57:23;16.20;;;7.20;;
57331;SDS011;43164;50.908;18.092;2022-12-07T10:00:16;15.70;;;7.20;;
57331;SDS011;43164;50.908;18.092;2022-12-07T10:02:59;16.40;;;7.80;;
57331;SDS011;43164;50.908;18.092;2022-12-07T10:05:39;18.30;;;7.90;;
57331;SDS011;43164;50.908;18.092;2022-12-07T10:08:21;15.70;;;7.10;;
57331;SDS011;43164;50.908;18.092;2022-12-07T10:10:59;14.80;;;6.50;;
57331;SDS011;43164;50.908;18.092;2022-12-07T10:13:44;16.60;;;7.00;;
57331;SDS011;43164;50.908;18.092;2022-12-07T10:22:02;16.00;;;7.10;;
57331;SDS011;43164;50.908;18.092;2022-12-07T10:24:32;14.40;;;6.70;;
57331;SDS011;43164;50.908;18.092;2022-12-07T10:27:02;18.30;;;7.80;;
57331;SDS011;43164;50.908;18.092;2022-12-07T10:29:39;14.90;;;7.20;;
57331;SDS011;43164;50.908;18.092;2022-12-07T10:34:50;14.20;;;6.40;;
57331;SDS011;43164;50.908;18.092;2022-12-07T10:37:43;15.60;;;6.40;;
57331;SDS011;43164;50.908;18.092;2022-12-07T10:40:28;17.50;;;7.20;;
57331;SDS011;43164;50.908;18.092;2022-12-07T10:43:04;15.30;;;6.60;;
57331;SDS011;43164;50.908;18.092;2022-12-07T10:48:23;14.70;;;6.80;;
57331;SDS011;43164;50.908;18.092;2022-12-07T10:56:58;14.70;;;6.50;;
57331;SDS011;43164;50.908;18.092;2022-12-07T11:11:16;14.20;;;6.30;;
57331;SDS011;43164;50.908;18.092;2022-12-07T11:14:16;16.70;;;6.90;;
57331;SDS011;43164;50.908;18.092;2022-12-07T11:17:14;16.10;;;7.20;;
57331;SDS011;43164;50.908;18.092;2022-12-07T11:34:29;16.60;;;8.10;;
57331;SDS011;43164;50.908;18.092;2022-12-07T11:37:21;15.60;;;7.50;;
57331;SDS011;43164;50.908;18.092;2022-12-07T11:40:20;16.40;;;7.70;;
57331;SDS011;43164;50.908;18.092;2022-12-07T11:45:34;17.20;;;7.20;;
57331;SDS011;43164;50.908;18.092;2022-12-07T11:48:13;15.60;;;7.20;;
57331;SDS011;43164;50.908;18.092;2022-12-07T11:51:06;18.10;;;7.30;;
57331;SDS011;43164;50.908;18.092;2022-12-07T11:53:44;13.50;;;5.90;;
57331;SDS011;43164;50.908;18.092;2022-12-07T12:00:05;11.80;;;5.50;;
57331;SDS011;43164;50.908;18.092;2022-12-07T12:06:22;10.70;;;4.70;;
57331;SDS011;43164;50.908;18.092;2022-12-07T12:11:54;9.80;;;4.20;;
57331;SDS011;43164;50.908;18.092;2022-12-07T12:20:51;9.60;;;4.20;;
57331;SDS011;43164;50.908;18.092;2022-12-07T12:23:48;9.60;;;3.80;;
57331;SDS011;43164;50.908;18.092;2022-12-07T12:26:40;10.50;;;4.00;;
57331;SDS011;43164;50.908;18.092;2022-12-07T12:45:31;8.60;;;3.50;;
57331;SDS011;43164;50.908;18.092;2022-12-07T12:47:56;9.60;;;4.00;;
57331;SDS011;43164;50.908;18.092;2022-12-07T12:50:30;8.40;;;3.30;;
57331;SDS011;43164;50.908;18.092;2022-12-07T12:56:19;7.80;;;3.40;;
57331;SDS011;43164;50.908;18.092;2022-12-07T13:05:00;9.60;;;3.30;;
57331;SDS011;43164;50.908;18.092;2022-12-07T13:24:01;9.40;;;3.70;;
57331;SDS011;43164;50.908;18.092;2022-12-07T13:26:42;8.40;;;3.00;;
57331;SDS011;43164;50.908;18.092;2022-12-07T13:31:52;8.80;;;4.10;;
57331;SDS011;43164;50.908;18.092;2022-12-07T13:37:21;9.60;;;4.20;;
57331;SDS011;43164;50.908;18.092;2022-12-07T13:39:58;9.00;;;3.40;;
57331;SDS011;43164;50.908;18.092;2022-12-07T13:42:37;8.60;;;4.20;;
57331;SDS011;43164;50.908;18.092;2022-12-07T13:48:42;10.50;;;4.30;;
57331;SDS011;43164;50.908;18.092;2022-12-07T13:59:02;9.60;;;3.90;;
57331;SDS011;43164;50.908;18.092;2022-12-07T14:11:52;9.70;;;4.00;;
57331;SDS011;43164;50.908;18.092;2022-12-07T14:17:25;8.70;;;3.60;;
57331;SDS011;43164;50.908;18.092;2022-12-07T14:26:09;9.40;;;4.20;;
57331;SDS011;43164;50.908;18.092;2022-12-07T14:28:41;8.70;;;4.00;;
57331;SDS011;43164;50.908;18.092;2022-12-07T14:31:18;10.20;;;4.50;;
57331;SDS011;43164;50.908;18.092;2022-12-07T14:40:41;11.30;;;4.20;;
57331;SDS011;43164;50.908;18.092;2022-12-07T14:43:20;12.90;;;5.00;;
57331;SDS011;43164;50.908;18.092;2022-12-07T14:45:51;11.10;;;4.90;;
57331;SDS011;43164;50.908;18.092;2022-12-07T14:48:26;10.60;;;4.80;;
57331;SDS011;43164;50.908;18.092;2022-12-07T14:57:40;15.30;;;5.80;;
57331;SDS011;43164;50.908;18.092;2022-12-07T15:00:14;12.80;;;5.70;;
57331;SDS011;43164;50.908;18.092;2022-12-07T15:32:18;11.80;;;5.40;;
57331;SDS011;43164;50.908;18.092;2022-12-07T15:37:41;12.60;;;5.30;;
57331;SDS011;43164;50.908;18.092;2022-12-07T15:59:07;11.60;;;4.60;;
57331;SDS011;43164;50.908;18.092;2022-12-07T16:02:09;13.60;;;5.70;;
57331;SDS011;43164;50.908;18.092;2022-12-07T16:04:45;11.50;;;5.00;;
57331;SDS011;43164;50.908;18.092;2022-12-07T16:14:17;11.90;;;5.10;;
57331;SDS011;43164;50.908;18.092;2022-12-07T16:19:58;12.30;;;6.10;;
57331;SDS011;43164;50.908;18.092;2022-12-07T16:22:27;13.10;;;5.70;;
57331;SDS011;43164;50.908;18.092;2022-12-07T16:24:58;15.90;;;6.70;;
57331;SDS011;43164;50.908;18.092;2022-12-07T16:27:35;14.00;;;6.40;;
57331;SDS011;43164;50.908;18.092;2022-12-07T16:30:11;13.60;;;6.40;;
57331;SDS011;43164;50.908;18.092;2022-12-07T16:32:45;15.00;;;6.60;;
57331;SDS011;43164;50.908;18.092;2022-12-07T16:41:27;14.70;;;7.30;;
57331;SDS011;43164;50.908;18.092;2022-12-07T16:44:05;14.10;;;6.30;;
57331;SDS011;43164;50.908;18.092;2022-12-07T16:46:35;15.00;;;6.50;;
57331;SDS011;43164;50.908;18.092;2022-12-07T16:49:15;18.70;;;6.20;;
57331;SDS011;43164;50.908;18.092;2022-12-07T16:51:44;16.30;;;7.30;;
57331;SDS011;43164;50.908;18.092;2022-12-07T17:01:47;17.70;;;7.60;;
57331;SDS011;43164;50.908;18.092;2022-12-07T17:04:30;15.90;;;7.10;;
57331;SDS011;43164;50.908;18.092;2022-12-07T17:10:02;16.60;;;7.90;;
57331;SDS011;43164;50.908;18.092;2022-12-07T17:12:36;19.50;;;8.70;;
57331;SDS011;43164;50.908;18.092;2022-12-07T17:16:03;15.90;;;8.00;;
57331;SDS011;43164;50.908;18.092;2022-12-07T17:26:07;16.20;;;7.20;;
57331;SDS011;43164;50.908;18.092;2022-12-07T17:35:44;16.10;;;7.50;;
57331;SDS011;43164;50.908;18.092;2022-12-07T17:42:22;14.50;;;7.00;;
57331;SDS011;43164;50.908;18.092;2022-12-07T17:48:15;14.30;;;5.80;;
57331;SDS011;43164;50.908;18.092;2022-12-07T17:50:43;11.50;;;4.90;;
57331;SDS011;43164;50.908;18.092;2022-12-07T17:53:33;14.40;;;5.10;;
57331;SDS011;43164;50.908;18.092;2022-12-07T17:59:43;10.30;;;4.60;;
57331;SDS011;43164;50.908;18.092;2022-12-07T18:05:09;14.30;;;6.50;;
57331;SDS011;43164;50.908;18.092;2022-12-07T18:10:22;14.00;;;5.30;;
57331;SDS011;43164;50.908;18.092;2022-12-07T18:13:03;13.50;;;6.50;;
57331;SDS011;43164;50.908;18.092;2022-12-07T18:16:07;14.50;;;6.70;;
57331;SDS011;43164;50.908;18.092;2022-12-07T18:18:49;13.70;;;6.70;;
57331;SDS011;43164;50.908;18.092;2022-12-07T18:22:05;15.00;;;7.20;;
57331;SDS011;43164;50.908;18.092;2022-12-07T18:24:42;14.90;;;6.90;;
57331;SDS011;43164;50.908;18.092;2022-12-07T18:30:42;14.60;;;7.00;;
57331;SDS011;43164;50.908;18.092;2022-12-07T18:33:48;14.20;;;7.10;;
57331;SDS011;43164;50.908;18.092;2022-12-07T18:36:23;18.90;;;7.30;;
57331;SDS011;43164;50.908;18.092;2022-12-07T18:46:36;14.10;;;7.20;;
57331;SDS011;43164;50.908;18.092;2022-12-07T18:49:13;16.50;;;6.50;;
57331;SDS011;43164;50.908;18.092;2022-12-07T18:51:45;17.10;;;7.00;;
57331;SDS011;43164;50.908;18.092;2022-12-07T18:54:16;17.60;;;7.10;;
57331;SDS011;43164;50.908;18.092;2022-12-07T18:56:48;14.50;;;6.40;;
57331;SDS011;43164;50.908;18.092;2022-12-07T18:59:26;13.90;;;6.50;;
57331;SDS011;43164;50.908;18.092;2022-12-07T19:02:35;16.50;;;7.10;;
57331;SDS011;43164;50.908;18.092;2022-12-07T19:05:21;16.30;;;6.70;;
57331;SDS011;43164;50.908;18.092;2022-12-07T19:08:00;18.60;;;7.80;;
57331;SDS011;43164;50.908;18.092;2022-12-07T19:10:32;16.80;;;7.20;;
57331;SDS011;43164;50.908;18.092;2022-12-07T19:13:08;17.80;;;7.10;;
57331;SDS011;43164;50.908;18.092;2022-12-07T19:15:38;16.30;;;7.10;;
57331;SDS011;43164;50.908;18.092;2022-12-07T19:18:14;16.30;;;7.50;;
57331;SDS011;43164;50.908;18.092;2022-12-07T19:24:19;15.70;;;6.80;;
57331;SDS011;43164;50.908;18.092;2022-12-07T19:26:51;17.30;;;7.10;;
57331;SDS011;43164;50.908;18.092;2022-12-07T19:29:27;16.90;;;7.70;;
57331;SDS011;43164;50.908;18.092;2022-12-07T19:32:07;21.80;;;7.90;;
57331;SDS011;43164;50.908;18.092;2022-12-07T19:34:37;16.50;;;7.20;;
57331;SDS011;43164;50.908;18.092;2022-12-07T19:37:08;16.80;;;7.80;;
57331;SDS011;43164;50.908;18.092;2022-12-07T19:39:39;19.30;;;8.50;;
57331;SDS011;43164;50.908;18.092;2022-12-07T19:42:18;21.20;;;8.20;;
57331;SDS011;43164;50.908;18.092;2022-12-07T19:44:52;18.60;;;8.00;;
57331;SDS011;43164;50.908;18.092;2022-12-07T19:47:27;16.30;;;7.50;;
57331;SDS011;43164;50.908;18.092;2022-12-07T19:49:57;17.00;;;7.30;;
57331;SDS011;43164;50.908;18.092;2022-12-07T19:52:26;21.40;;;8.80;;
57331;SDS011;43164;50.908;18.092;2022-12-07T19:55:01;20.40;;;8.50;;
57331;SDS011;43164;50.908;18.092;2022-12-07T19:57:30;19.40;;;8.40;;
57331;SDS011;43164;50.908;18.092;2022-12-07T20:00:00;19.50;;;9.30;;
57331;SDS011;43164;50.908;18.092;2022-12-07T20:02:29;17.30;;;8.00;;
57331;SDS011;43164;50.908;18.092;2022-12-07T20:04:58;19.90;;;8.10;;
57331;SDS011;43164;50.908;18.092;2022-12-07T20:07:27;18.30;;;8.60;;
57331;SDS011;43164;50.908;18.092;2022-12-07T20:09:56;18.60;;;7.70;;
57331;SDS011;43164;50.908;18.092;2022-12-07T20:12:23;18.80;;;9.30;;